createdAt,value
2019-03-28T00:01:12.861Z,102803.73
2019-03-28T00:03:41.365Z,102810.80
2019-03-28T00:06:09.862Z,102801.58
2019-03-28T00:08:38.364Z,102805.48
2019-03-28T00:11:06.887Z,102798.64
2019-03-28T00:13:35.392Z,102801.34
2019-03-28T00:16:04.162Z,102805.47
2019-03-28T00:18:32.673Z,102742.59
2019-03-28T00:21:01.273Z,102797.29
2019-03-28T00:23:32.155Z,102792.09
2019-03-28T00:26:00.804Z,102789.39
2019-03-28T00:28:29.370Z,102791.09
2019-03-28T00:30:57.919Z,102795.87
2019-03-28T00:33:26.468Z,102803.88
2019-03-28T00:35:54.993Z,102809.28
2019-03-28T00:38:23.636Z,102810.63
2019-03-28T00:40:52.146Z,102791.95
2019-03-28T00:43:23.182Z,102809.56
2019-03-28T00:45:51.704Z,102805.87
2019-03-28T00:48:20.434Z,102810.56
2019-03-28T00:50:49.132Z,102807.55
2019-03-28T00:53:17.676Z,102813.34
2019-03-28T00:55:46.204Z,102814.13
2019-03-28T00:58:17.730Z,102811.19
2019-03-28T01:00:46.366Z,102804.36
2019-03-28T01:03:15.236Z,102807.23
2019-03-28T01:05:43.726Z,102809.31
2019-03-28T01:08:12.369Z,102807.72
2019-03-28T01:10:40.925Z,102808.27
2019-03-28T01:13:09.666Z,102803.17
2019-03-28T01:15:38.167Z,102808.03
2019-03-28T01:18:06.793Z,102808.34
2019-03-28T01:20:35.378Z,102806.85
2019-03-28T01:23:03.893Z,102806.44
2019-03-28T01:25:32.413Z,102801.73
2019-03-28T01:28:00.958Z,102800.23
2019-03-28T01:30:29.464Z,102798.23
2019-03-28T01:32:59.636Z,102799.19
2019-03-28T01:35:29.783Z,102796.42
2019-03-28T01:37:59.954Z,102793.79
2019-03-28T01:40:28.452Z,102788.94
2019-03-28T01:42:57.030Z,102786.86
2019-03-28T01:45:25.603Z,102795.59
2019-03-28T01:47:54.129Z,102790.19
2019-03-28T01:50:25.406Z,102794.59
2019-03-28T01:53:01.185Z,102804.05
2019-03-28T01:55:27.233Z,102803.08
2019-03-28T01:57:55.755Z,102809.70
2019-03-28T02:00:24.380Z,102806.89
2019-03-28T02:02:52.889Z,102805.95
2019-03-28T02:05:21.590Z,102809.22
2019-03-28T02:07:50.283Z,102806.58
2019-03-28T02:10:18.973Z,102806.41
2019-03-28T02:12:47.468Z,102805.30
2019-03-28T02:15:16.204Z,102810.70
2019-03-28T02:17:44.784Z,102816.98
2019-03-28T02:20:13.485Z,102815.73
2019-03-28T02:22:41.968Z,102827.89
2019-03-28T02:25:10.794Z,102829.25
2019-03-28T02:27:39.311Z,102827.72
2019-03-28T02:30:11.447Z,102831.47
2019-03-28T02:32:40.024Z,102829.49
2019-03-28T02:35:09.217Z,102829.80
2019-03-28T02:37:37.828Z,102827.89
2019-03-28T02:40:10.743Z,102834.58
2019-03-28T02:42:39.298Z,102834.90
2019-03-28T02:45:08.419Z,102829.87
2019-03-28T02:47:36.912Z,102834.09
2019-03-28T02:50:09.387Z,102833.69
2019-03-28T02:52:37.880Z,102839.23
2019-03-28T02:55:10.245Z,102836.34
2019-03-28T02:57:42.056Z,102841.94
2019-03-28T03:00:09.825Z,102846.95
2019-03-28T03:02:38.434Z,102846.95
2019-03-28T03:05:10.356Z,102849.17
2019-03-28T03:07:38.888Z,102847.02
2019-03-28T03:10:09.249Z,102850.77
2019-03-28T03:12:37.749Z,102860.67
2019-03-28T03:15:08.044Z,102847.51
2019-03-28T03:17:36.547Z,102854.52
2019-03-28T03:20:06.758Z,102845.19
2019-03-28T03:22:35.259Z,102847.09
2019-03-28T03:25:05.973Z,102844.01
2019-03-28T03:27:37.627Z,102844.25
2019-03-28T03:30:08.112Z,102848.62
2019-03-28T03:32:36.757Z,102844.32
2019-03-28T03:35:06.099Z,102843.21
2019-03-28T03:37:34.794Z,102841.44
2019-03-28T03:40:05.753Z,102841.20
2019-03-28T03:42:34.417Z,102839.54
2019-03-28T03:45:06.278Z,102842.23
2019-03-28T03:47:34.774Z,102840.34
2019-03-28T03:50:07.505Z,102839.47
2019-03-28T03:52:36.063Z,102839.41
2019-03-28T03:55:06.699Z,102848.44
2019-03-28T03:57:35.183Z,102847.16
2019-03-28T04:00:05.742Z,102839.47
2019-03-28T04:02:34.219Z,102842.72
2019-03-28T04:05:02.852Z,102845.91
2019-03-28T04:07:31.431Z,102848.13
2019-03-28T04:09:59.939Z,102855.55
2019-03-28T04:12:31.223Z,102850.70
2019-03-28T04:14:59.804Z,102855.06
2019-03-28T04:17:28.289Z,102858.16
2019-03-28T04:19:56.825Z,102858.43
2019-03-28T04:22:25.320Z,102854.52
2019-03-28T04:24:53.914Z,102850.14
2019-03-28T04:27:22.462Z,102853.16
2019-03-28T04:29:50.962Z,102849.41
2019-03-28T04:32:20.579Z,102843.94
2019-03-28T04:34:49.362Z,102848.79
2019-03-28T04:37:18.618Z,102848.38
2019-03-28T04:39:49.413Z,102858.63
2019-03-28T04:42:20.197Z,102851.39
2019-03-28T04:44:48.698Z,102849.73
2019-03-28T04:47:17.262Z,102849.73
2019-03-28T04:49:45.763Z,102847.72
2019-03-28T04:52:14.781Z,102853.47
2019-03-28T04:54:43.269Z,102853.64
2019-03-28T04:57:11.830Z,102850.14
2019-03-28T04:59:40.421Z,102851.15
2019-03-28T05:02:09.971Z,102857.66
2019-03-28T05:04:38.501Z,102857.97
2019-03-28T05:07:07.011Z,102858.21
2019-03-28T05:09:35.578Z,102862.86
2019-03-28T05:12:04.162Z,102869.69
2019-03-28T05:14:32.691Z,102864.11
2019-03-28T05:17:01.259Z,102863.73
2019-03-28T05:19:29.761Z,102859.84
2019-03-28T05:21:58.362Z,102858.25
2019-03-28T05:24:26.995Z,102856.97
2019-03-28T05:26:56.105Z,102855.06
2019-03-28T05:29:26.525Z,102855.06
2019-03-28T05:31:54.883Z,102848.30
2019-03-28T05:34:23.393Z,102847.34
2019-03-28T05:36:52.303Z,102851.02
2019-03-28T05:39:20.979Z,102854.75
2019-03-28T05:41:49.507Z,102861.75
2019-03-28T05:44:18.022Z,102868.44
2019-03-28T05:46:46.539Z,102870.97
2019-03-28T05:49:15.063Z,102871.29
2019-03-28T05:51:43.560Z,102871.53
2019-03-28T05:54:13.691Z,102878.42
2019-03-28T05:56:42.261Z,102875.82
2019-03-28T05:59:11.603Z,102884.48
2019-03-28T06:01:42.215Z,102891.00
2019-03-28T06:04:10.780Z,102891.14
2019-03-28T06:06:39.528Z,102893.02
2019-03-28T06:09:11.321Z,102892.84
2019-03-28T06:11:39.864Z,102886.27
2019-03-28T06:14:19.652Z,102892.40
2019-03-28T06:16:48.176Z,102894.45
2019-03-28T06:19:16.705Z,102901.37
2019-03-28T06:21:45.228Z,102907.89
2019-03-28T06:24:16.496Z,102906.55
2019-03-28T06:26:49.962Z,102919.68
2019-03-28T06:29:24.022Z,102920.11
2019-03-28T06:31:55.227Z,102924.93
2019-03-28T06:34:20.431Z,102931.20
2019-03-28T06:36:48.903Z,102927.56
2019-03-28T06:39:17.391Z,102928.05
2019-03-28T06:41:45.903Z,102932.34
2019-03-28T06:44:14.414Z,102931.80
2019-03-28T06:46:42.952Z,102930.30
2019-03-28T06:49:11.795Z,102935.60
2019-03-28T06:51:40.301Z,102934.41
2019-03-28T06:54:08.807Z,102936.11
2019-03-28T06:56:37.327Z,102937.23
2019-03-28T06:59:06.007Z,102940.25
2019-03-28T07:01:34.524Z,102948.13
2019-03-28T07:04:06.123Z,102956.23
2019-03-28T07:06:34.694Z,102954.81
2019-03-28T07:09:04.265Z,102953.31
2019-03-28T07:11:33.229Z,102954.49
2019-03-28T07:14:02.378Z,102958.41
2019-03-28T07:16:30.941Z,102956.98
2019-03-28T07:18:59.465Z,102953.48
2019-03-28T07:21:30.157Z,102948.09
2019-03-28T07:23:58.697Z,102946.25
2019-03-28T07:26:27.275Z,102950.95
2019-03-28T07:28:55.945Z,102947.20
2019-03-28T07:31:24.535Z,102959.95
2019-03-28T07:33:55.785Z,102970.07
2019-03-28T07:36:24.266Z,102965.94
2019-03-28T07:38:52.820Z,102971.03
2019-03-28T07:41:24.178Z,102968.73
2019-03-28T07:43:52.678Z,102971.98
2019-03-28T07:46:21.182Z,102975.17
2019-03-28T07:48:49.710Z,102983.12
2019-03-28T07:51:18.212Z,102982.67
2019-03-28T07:53:47.419Z,102992.37
2019-03-28T07:56:16.008Z,102994.30
2019-03-28T07:58:44.619Z,102993.02
2019-03-28T08:01:13.097Z,102996.66
2019-03-28T08:03:41.617Z,102999.78
2019-03-28T08:06:12.795Z,102997.94
2019-03-28T08:08:44.056Z,102997.31
2019-03-28T08:11:11.166Z,102989.75
2019-03-28T08:13:39.696Z,102995.09
2019-03-28T08:16:08.195Z,102995.32
2019-03-28T08:18:38.245Z,103002.40
2019-03-28T08:21:06.753Z,103005.11
2019-03-28T08:23:35.618Z,103012.53
2019-03-28T08:26:04.513Z,103006.55
2019-03-28T08:28:33.066Z,103009.25
2019-03-28T08:31:04.510Z,103011.33
2019-03-28T08:33:33.576Z,103014.11
2019-03-28T08:36:04.562Z,103018.64
2019-03-28T08:38:35.750Z,103024.77
2019-03-28T08:41:06.978Z,103022.78
2019-03-28T08:43:36.108Z,103029.97
2019-03-28T08:46:04.830Z,103030.35
2019-03-28T08:48:34.854Z,103019.97
2019-03-28T08:51:06.576Z,103024.59
2019-03-28T08:53:37.640Z,103025.23
2019-03-28T08:56:06.040Z,103029.76
2019-03-28T08:58:37.870Z,103023.47
2019-03-28T09:01:06.393Z,103028.69
2019-03-28T09:03:34.894Z,103026.27
2019-03-28T09:06:03.590Z,103025.65
2019-03-28T09:08:32.044Z,103022.97
2019-03-28T09:11:00.569Z,103022.99
2019-03-28T09:13:29.124Z,103025.70
2019-03-28T09:15:57.695Z,103034.45
2019-03-28T09:18:26.218Z,103026.73
2019-03-28T09:20:54.812Z,103032.16
2019-03-28T09:23:23.388Z,103027.72
2019-03-28T09:25:52.054Z,103038.70
2019-03-28T09:28:20.613Z,103041.22
2019-03-28T09:30:49.849Z,103027.05
2019-03-28T09:33:18.549Z,103026.80
2019-03-28T09:35:47.177Z,103020.90
2019-03-28T09:38:17.230Z,103018.78
2019-03-28T09:40:57.042Z,103023.02
2019-03-28T09:43:25.574Z,103031.05
2019-03-28T09:45:54.155Z,103036.91
2019-03-28T09:48:22.857Z,103036.23
2019-03-28T09:50:51.421Z,103033.14
2019-03-28T09:53:19.951Z,103034.69
2019-03-28T09:55:48.509Z,103030.97
2019-03-28T09:58:17.007Z,103031.29
2019-03-28T10:00:46.089Z,103030.31
2019-03-28T10:03:17.404Z,103032.08
2019-03-28T10:05:45.902Z,103036.91
2019-03-28T10:08:14.498Z,103040.60
2019-03-28T10:10:43.136Z,103041.88
2019-03-28T10:13:13.167Z,103041.36
2019-03-28T10:15:41.840Z,103049.23
2019-03-28T10:18:10.425Z,103046.78
2019-03-28T10:20:41.013Z,103052.34
2019-03-28T10:23:12.587Z,103051.46
2019-03-28T10:25:41.397Z,103047.31
2019-03-28T10:28:09.881Z,103044.98
2019-03-28T10:30:40.768Z,103047.12
2019-03-28T10:33:09.577Z,103051.20
2019-03-28T10:35:38.238Z,103050.61
2019-03-28T10:38:08.541Z,103050.70
2019-03-28T10:40:37.168Z,103049.66
2019-03-28T10:43:07.283Z,103058.20
2019-03-28T10:45:36.833Z,103054.61
2019-03-28T10:48:05.471Z,103056.14
2019-03-28T10:50:41.486Z,103060.52
2019-03-28T10:53:04.349Z,103056.72
2019-03-28T10:55:32.873Z,103057.11
2019-03-28T10:58:17.232Z,103054.38
2019-03-28T11:00:32.785Z,103059.34
2019-03-28T11:03:01.359Z,103055.84
2019-03-28T11:05:32.633Z,103063.41
2019-03-28T11:08:01.142Z,103058.23
2019-03-28T11:10:30.640Z,103061.08
2019-03-28T11:12:59.485Z,103055.54
2019-03-28T11:15:28.039Z,103057.97
2019-03-28T11:17:56.638Z,103049.02
2019-03-28T11:20:25.496Z,103056.21
2019-03-28T11:22:54.012Z,103061.47
2019-03-28T11:25:24.378Z,103061.76
2019-03-28T11:27:52.908Z,103063.72
2019-03-28T11:30:23.024Z,103061.58
2019-03-28T11:32:51.522Z,103068.96
2019-03-28T11:35:21.875Z,103066.82
2019-03-28T11:37:53.358Z,103062.74
2019-03-28T11:40:24.571Z,103068.19
2019-03-28T11:42:55.558Z,103063.50
2019-03-28T11:45:26.940Z,103068.84
2019-03-28T11:47:55.980Z,103072.82
2019-03-28T11:50:24.632Z,103069.00
2019-03-28T11:52:53.248Z,103068.05
2019-03-28T11:55:21.827Z,103068.62
2019-03-28T11:57:50.356Z,103067.36
2019-03-28T12:00:19.704Z,103065.88
2019-03-28T12:02:48.214Z,103065.70
2019-03-28T12:05:16.893Z,103060.45
2019-03-28T12:07:45.488Z,103066.75
2019-03-28T12:10:14.550Z,103062.50
2019-03-28T12:12:43.207Z,103063.37
2019-03-28T12:15:12.981Z,103064.72
2019-03-28T12:17:41.550Z,103057.81
2019-03-28T12:20:11.703Z,103065.30
2019-03-28T12:22:40.348Z,103065.39
2019-03-28T12:25:09.042Z,103062.39
2019-03-28T12:27:37.715Z,103067.24
2019-03-28T12:30:08.553Z,103069.47
2019-03-28T12:32:37.089Z,103060.16
2019-03-28T12:35:07.860Z,103063.72
2019-03-28T12:37:36.842Z,103059.47
2019-03-28T12:40:08.504Z,103052.00
2019-03-28T12:42:37.166Z,103058.42
2019-03-28T12:45:12.951Z,103056.11
2019-03-28T12:47:43.145Z,103056.31
2019-03-28T12:50:13.191Z,103053.96
2019-03-28T12:52:41.846Z,103058.45
2019-03-28T12:55:10.983Z,103056.98
2019-03-28T12:57:39.626Z,103049.59
2019-03-28T13:00:10.381Z,103051.05
2019-03-28T13:02:39.471Z,103048.44
2019-03-28T13:05:09.844Z,103053.01
2019-03-28T13:07:38.374Z,103052.14
2019-03-28T13:10:12.589Z,103051.05
2019-03-28T13:12:41.173Z,103048.73
2019-03-28T13:15:10.390Z,103039.22
2019-03-28T13:17:38.911Z,103042.02
2019-03-28T13:20:09.462Z,103046.68
2019-03-28T13:22:38.045Z,103048.21
2019-03-28T13:25:09.880Z,103038.70
2019-03-28T13:27:38.435Z,103040.27
2019-03-28T13:30:10.250Z,103041.83
2019-03-28T13:32:41.972Z,103049.38
2019-03-28T13:35:09.747Z,103049.29
2019-03-28T13:37:38.228Z,103053.28
2019-03-28T13:40:08.664Z,103051.80
2019-03-28T13:42:40.930Z,103056.66
2019-03-28T13:45:11.555Z,103048.51
2019-03-28T13:47:40.125Z,103048.30
2019-03-28T13:50:10.938Z,103047.55
2019-03-28T13:52:41.890Z,103045.43
2019-03-28T13:55:13.546Z,103047.96
2019-03-28T13:57:43.507Z,103044.77
2019-03-28T14:00:13.709Z,103048.35
2019-03-28T14:02:55.495Z,103047.00
2019-03-28T14:05:14.117Z,103045.45
2019-03-28T14:07:42.579Z,103047.79
2019-03-28T14:10:11.543Z,103049.73
2019-03-28T14:12:40.043Z,103053.63
2019-03-28T14:15:12.243Z,103052.66
2019-03-28T14:17:40.723Z,103048.58
2019-03-28T14:20:14.644Z,103054.67
2019-03-28T14:22:43.172Z,103054.89
2019-03-28T14:25:12.054Z,103053.70
2019-03-28T14:27:40.530Z,103053.92
2019-03-28T14:30:11.636Z,103053.41
2019-03-28T14:32:52.496Z,103055.54
2019-03-28T14:35:10.808Z,103058.55
2019-03-28T14:37:40.731Z,103052.34
2019-03-28T14:40:11.833Z,103057.95
2019-03-28T14:42:40.985Z,103048.93
2019-03-28T14:45:09.952Z,103052.69
2019-03-28T14:47:42.006Z,103055.90
2019-03-28T14:50:11.994Z,103058.62
2019-03-28T14:52:40.546Z,103051.83
2019-03-28T14:55:09.220Z,103056.31
2019-03-28T14:57:38.250Z,103050.67
2019-03-28T15:00:10.005Z,103042.52
2019-03-28T15:02:38.555Z,103048.41
2019-03-28T15:05:07.324Z,103046.77
2019-03-28T15:07:35.798Z,103045.20
2019-03-28T15:10:07.013Z,103046.77
2019-03-28T15:12:35.478Z,103041.91
2019-03-28T15:15:04.561Z,103044.80
2019-03-28T15:17:33.032Z,103042.98
2019-03-28T15:20:01.617Z,103039.20
2019-03-28T15:22:30.102Z,103036.47
2019-03-28T15:24:58.586Z,103036.07
2019-03-28T15:27:28.518Z,103035.98
2019-03-28T15:29:57.030Z,103031.73
2019-03-28T15:32:25.571Z,103031.73
2019-03-28T15:34:54.057Z,103027.16
2019-03-28T15:37:27.478Z,103030.66
2019-03-28T15:40:18.714Z,103026.20
2019-03-28T15:42:47.523Z,103024.94
2019-03-28T15:45:16.162Z,103025.42
2019-03-28T15:47:44.634Z,103027.94
2019-03-28T15:50:13.321Z,103025.71
2019-03-28T15:52:41.878Z,103025.22
2019-03-28T15:55:10.544Z,103018.42
2019-03-28T15:57:40.866Z,103013.97
2019-03-28T16:00:11.017Z,103021.23
2019-03-28T16:02:42.809Z,103018.62
2019-03-28T16:05:14.553Z,103018.62
2019-03-28T16:07:43.655Z,103020.17
2019-03-28T16:10:14.770Z,103027.05
2019-03-28T16:12:44.356Z,103023.95
2019-03-28T16:15:14.425Z,103027.63
2019-03-28T16:17:42.973Z,103030.92
2019-03-28T16:20:12.116Z,103028.12
2019-03-28T16:22:40.579Z,103021.59
2019-03-28T16:25:09.349Z,103025.66
2019-03-28T16:27:37.828Z,103027.02
2019-03-28T16:30:30.108Z,103021.39
2019-03-28T16:32:58.650Z,103031.30
2019-03-28T16:35:27.160Z,103034.48
2019-03-28T16:37:55.656Z,103038.27
2019-03-28T16:40:24.254Z,103040.13
2019-03-28T16:42:52.747Z,103032.55
2019-03-28T16:45:21.397Z,103038.08
2019-03-28T16:47:49.871Z,103036.80
2019-03-28T16:50:19.259Z,103037.78
2019-03-28T16:52:48.287Z,103039.14
2019-03-28T16:55:26.229Z,103038.36
2019-03-28T16:57:47.263Z,103034.75
2019-03-28T17:00:16.743Z,103037.17
2019-03-28T17:02:56.088Z,103034.45
2019-03-28T17:05:25.956Z,103033.77
2019-03-28T17:07:54.618Z,103040.76
2019-03-28T17:10:42.431Z,103031.70
2019-03-28T17:13:16.382Z,103038.99
2019-03-28T17:15:47.272Z,103041.30
2019-03-28T17:18:18.445Z,103047.72
2019-03-28T17:20:46.072Z,103041.80
2019-03-28T17:23:14.686Z,103052.28
2019-03-28T17:25:43.245Z,103054.22
2019-03-28T17:28:14.924Z,103059.66
2019-03-28T17:30:48.314Z,103058.75
2019-03-28T17:33:18.953Z,103057.97
2019-03-28T17:35:49.558Z,103062.12
2019-03-28T17:38:17.752Z,103056.81
2019-03-28T17:40:46.698Z,103059.53
2019-03-28T17:43:15.895Z,103057.69
2019-03-28T17:45:44.858Z,103057.77
2019-03-28T17:48:13.457Z,103059.61
2019-03-28T17:50:43.715Z,103064.18
2019-03-28T17:53:12.519Z,103061.55
2019-03-28T17:55:40.991Z,103065.12
2019-03-28T17:58:13.708Z,103066.28
2019-03-28T18:00:46.840Z,103064.52
2019-03-28T18:03:15.392Z,103060.55
2019-03-28T18:05:57.131Z,103065.66
2019-03-28T18:08:14.403Z,103060.72
2019-03-28T18:10:44.458Z,103073.52
2019-03-28T18:13:16.146Z,103075.73
2019-03-28T18:15:47.951Z,103077.09
2019-03-28T18:18:16.467Z,103080.80
2019-03-28T18:20:44.962Z,103079.03
2019-03-28T18:23:13.433Z,103077.30
2019-03-28T18:25:44.912Z,103077.30
2019-03-28T18:28:15.331Z,103077.75
2019-03-28T18:30:43.902Z,103074.98
2019-03-28T18:33:12.436Z,103085.39
2019-03-28T18:35:41.026Z,103081.37
2019-03-28T18:38:10.697Z,103080.87
2019-03-28T18:40:40.231Z,103087.62
2019-03-28T18:43:08.872Z,103083.79
2019-03-28T18:45:37.497Z,103088.02
2019-03-28T18:48:08.876Z,103081.80
2019-03-28T18:50:36.381Z,103086.53
2019-03-28T18:53:06.951Z,103081.89
2019-03-28T18:55:41.519Z,103086.94
2019-03-28T18:58:10.047Z,103086.04
2019-03-28T19:00:38.678Z,103089.33
2019-03-28T19:03:10.171Z,103087.97
2019-03-28T19:05:45.366Z,103094.87
2019-03-28T19:08:13.910Z,103090.80
2019-03-28T19:10:45.405Z,103087.83
2019-03-28T19:13:14.167Z,103092.88
2019-03-28T19:15:42.827Z,103096.55
2019-03-28T19:18:13.196Z,103094.81
2019-03-28T19:20:41.819Z,103087.61
2019-03-28T19:23:10.869Z,103091.77
2019-03-28T19:25:42.847Z,103094.10
2019-03-28T19:28:27.643Z,103094.10
2019-03-28T19:30:46.980Z,103090.82
2019-03-28T19:33:15.477Z,103087.81
2019-03-28T19:35:45.240Z,103080.05
2019-03-28T19:38:13.811Z,103075.89
2019-03-28T19:40:42.452Z,103078.19
2019-03-28T19:43:20.454Z,103080.23
2019-03-28T19:45:46.706Z,103077.60
2019-03-28T19:48:15.258Z,103083.97
2019-03-28T19:50:46.540Z,103084.84
2019-03-28T19:53:19.328Z,103074.97
2019-03-28T19:55:49.362Z,103079.12
2019-03-28T19:58:17.897Z,103074.09
2019-03-28T20:00:46.539Z,103071.84
2019-03-28T20:03:15.002Z,103077.27
2019-03-28T20:05:47.823Z,103079.61
2019-03-28T20:08:15.961Z,103082.40
2019-03-28T20:10:50.296Z,103091.59
2019-03-28T20:13:23.869Z,103092.05
2019-03-28T20:15:52.806Z,103092.55
2019-03-28T20:18:21.355Z,103092.05
2019-03-28T20:20:49.912Z,103095.75
2019-03-28T20:23:18.560Z,103096.23
2019-03-28T20:25:47.162Z,103101.66
2019-03-28T20:28:16.394Z,103101.66
2019-03-28T20:30:45.103Z,103099.41
2019-03-28T20:33:13.569Z,103098.05
2019-03-28T20:35:42.198Z,103104.53
2019-03-28T20:38:10.744Z,103103.17
2019-03-28T20:40:39.401Z,103109.96
2019-03-28T20:43:10.643Z,103113.09
2019-03-28T20:45:39.180Z,103117.61
2019-03-28T20:48:12.137Z,103115.88
2019-03-28T20:50:45.518Z,103116.82
2019-03-28T20:53:13.392Z,103120.89
2019-03-28T20:55:44.859Z,103125.45
2019-03-28T20:58:13.545Z,103123.23
2019-03-28T21:00:44.399Z,103129.52
2019-03-28T21:03:15.024Z,103125.94
2019-03-28T21:05:45.080Z,103133.75
2019-03-28T21:08:13.869Z,103130.09
2019-03-28T21:10:42.415Z,103125.61
2019-03-28T21:13:10.993Z,103134.53
2019-03-28T21:15:39.539Z,103130.66
2019-03-28T21:18:08.074Z,103139.58
2019-03-28T21:20:36.791Z,103133.86
2019-03-28T21:23:05.531Z,103141.02
2019-03-28T21:25:34.033Z,103137.44
2019-03-28T21:28:02.594Z,103135.29
2019-03-28T21:30:31.176Z,103134.73
2019-03-28T21:32:59.740Z,103132.16
2019-03-28T21:35:28.286Z,103128.09
2019-03-28T21:37:56.788Z,103132.24
2019-03-28T21:40:25.319Z,103131.86
2019-03-28T21:42:53.776Z,103127.79
2019-03-28T21:45:22.555Z,103129.23
2019-03-28T21:47:51.149Z,103129.72
2019-03-28T21:50:19.778Z,103138.34
2019-03-28T21:52:48.435Z,103136.50
2019-03-28T21:55:18.711Z,103127.00
2019-03-28T21:57:47.193Z,103135.14
2019-03-28T22:00:17.182Z,103128.44
2019-03-28T22:02:45.786Z,103126.59
2019-03-28T22:05:14.512Z,103130.58
2019-03-28T22:07:42.995Z,103124.85
2019-03-28T22:10:11.745Z,103124.36
2019-03-28T22:12:40.307Z,103128.84
2019-03-28T22:15:09.691Z,103124.36
2019-03-28T22:17:41.972Z,103125.31
2019-03-28T22:20:10.968Z,103126.59
2019-03-28T22:22:39.607Z,103118.45
2019-03-28T22:25:08.348Z,103126.21
2019-03-28T22:27:36.943Z,103122.22
2019-03-28T22:30:07.202Z,103129.00
2019-03-28T22:32:35.752Z,103124.93
2019-03-28T22:35:28.727Z,103118.64
2019-03-28T22:37:57.214Z,103117.73
2019-03-28T22:40:25.758Z,103115.70
2019-03-28T22:42:54.245Z,103115.21
2019-03-28T22:45:22.932Z,103116.95
2019-03-28T22:47:51.438Z,103111.14
2019-03-28T22:50:20.017Z,103106.20
2019-03-28T22:52:48.532Z,103099.42
2019-03-28T22:55:17.184Z,103103.49
2019-03-28T22:57:45.688Z,103103.08
2019-03-28T23:00:15.558Z,103101.72
2019-03-28T23:02:44.180Z,103102.21
2019-03-28T23:05:13.506Z,103095.02
2019-03-28T23:07:41.988Z,103091.93
2019-03-28T23:10:11.463Z,103096.94
2019-03-28T23:12:40.058Z,103103.72
2019-03-28T23:15:10.856Z,103099.27
2019-03-28T23:17:39.480Z,103102.85
2019-03-28T23:20:09.921Z,103097.51
2019-03-28T23:22:38.492Z,103096.64
2019-03-28T23:25:09.113Z,103097.13
2019-03-28T23:27:37.673Z,103086.35
2019-03-28T23:30:09.351Z,103089.52
2019-03-28T23:32:38.754Z,103084.20
2019-03-28T23:35:08.213Z,103081.95
2019-03-28T23:37:36.701Z,103084.77
2019-03-28T23:40:09.899Z,103080.70
2019-03-28T23:42:38.478Z,103077.58
2019-03-28T23:45:11.896Z,103073.52
2019-03-28T23:47:41.940Z,103073.92
2019-03-28T23:50:10.585Z,103067.71
2019-03-28T23:52:39.069Z,103066.43
2019-03-28T23:55:09.281Z,103061.47
2019-03-28T23:57:37.753Z,103057.96
